West Lexington, Virginia
Current Conditions -  °F | °C
As of 1:15 AM on Saturday 29 Nov 2014 (Local Time) from KHSP Reporting Station
Broken Clouds Broken Clouds  
Wind Chill: 19°   Ceiling: 9000
Heat Index: 28°   Visibility: 10mi
Dew Point:   Wind: 10mph
Humidity: 35%   Direction: 230°SW
Pressure: 30.07"   Gusts: NA
Location:  37.7866°N, 79.5193°W
Report Text: KHSP 290615Z AUTO 23009KT 10SM BKN090 M02/M16 A3007 RMK AO2 T10201156
Loading
Personal Weather Stations






























Interactive Weather Map New forecast layout! Learn more

10-Day Weather Forecast

Advertisements
Track Severe Weather on mobile